createdAt,value
2017-11-07T00:00:23.831Z,0
2017-11-07T00:01:04.385Z,0
2017-11-07T00:01:44.931Z,0
2017-11-07T00:02:25.476Z,0
2017-11-07T00:03:06.009Z,0
2017-11-07T00:03:46.562Z,0
2017-11-07T00:04:27.111Z,0
2017-11-07T00:05:07.660Z,0
2017-11-07T00:05:48.211Z,0
2017-11-07T00:06:28.755Z,0
2017-11-07T00:07:09.364Z,0
2017-11-07T00:07:49.898Z,0
2017-11-07T00:08:30.449Z,0
2017-11-07T00:09:10.996Z,0
2017-11-07T00:09:51.511Z,0
2017-11-07T00:10:32.044Z,0
2017-11-07T00:11:12.608Z,0
2017-11-07T00:11:53.153Z,0
2017-11-07T00:12:33.708Z,0
2017-11-07T00:13:14.199Z,0
2017-11-07T00:13:54.735Z,0
2017-11-07T00:14:35.289Z,0
2017-11-07T00:15:15.846Z,0
2017-11-07T00:15:56.386Z,0
2017-11-07T00:16:36.945Z,0
2017-11-07T00:17:17.523Z,0
2017-11-07T00:17:58.049Z,0
2017-11-07T00:18:38.592Z,0
2017-11-07T00:19:19.161Z,0
2017-11-07T00:19:59.702Z,0
2017-11-07T00:20:40.257Z,0
2017-11-07T00:21:20.801Z,0
2017-11-07T00:22:01.344Z,0
2017-11-07T00:22:41.932Z,0
2017-11-07T00:23:22.488Z,0
2017-11-07T00:24:03.045Z,0
2017-11-07T00:24:43.589Z,0
2017-11-07T00:25:24.156Z,0
2017-11-07T00:26:04.660Z,0
2017-11-07T00:26:45.208Z,0
2017-11-07T00:27:25.750Z,0
2017-11-07T00:28:06.298Z,0
2017-11-07T00:28:46.843Z,0
2017-11-07T00:29:27.392Z,0
2017-11-07T00:30:07.946Z,0
2017-11-07T00:30:48.517Z,0
2017-11-07T00:31:29.071Z,0
2017-11-07T00:32:09.614Z,0
2017-11-07T00:32:50.159Z,0
2017-11-07T00:33:30.702Z,0
2017-11-07T00:34:11.232Z,0
2017-11-07T00:34:51.814Z,0
2017-11-07T00:35:32.363Z,0
2017-11-07T00:36:12.916Z,0
2017-11-07T00:36:53.456Z,0
2017-11-07T00:37:34.012Z,0
2017-11-07T00:38:14.584Z,0
2017-11-07T00:38:55.138Z,0
2017-11-07T00:39:35.676Z,0
2017-11-07T00:40:16.257Z,0
2017-11-07T00:40:56.791Z,0
2017-11-07T00:41:37.354Z,0
2017-11-07T00:42:17.910Z,0
2017-11-07T00:42:58.477Z,0
2017-11-07T00:43:39.012Z,0
2017-11-07T00:44:19.599Z,0
2017-11-07T00:45:00.110Z,0
2017-11-07T00:45:40.671Z,0
2017-11-07T00:46:21.287Z,0
2017-11-07T00:47:01.921Z,0
2017-11-07T00:47:42.444Z,0
2017-11-07T00:48:23.025Z,0
2017-11-07T00:49:03.581Z,0
2017-11-07T00:49:44.147Z,0
2017-11-07T00:50:24.695Z,0
2017-11-07T00:51:05.275Z,0
2017-11-07T00:51:45.826Z,0
2017-11-07T00:52:26.414Z,0
2017-11-07T00:53:07.005Z,0
2017-11-07T00:53:47.576Z,0
2017-11-07T00:54:28.091Z,0
2017-11-07T00:55:08.665Z,0
2017-11-07T00:55:49.184Z,0
2017-11-07T00:56:29.738Z,0
2017-11-07T00:57:10.331Z,0
2017-11-07T00:57:50.895Z,0
2017-11-07T00:58:31.455Z,0
2017-11-07T00:59:11.996Z,0
2017-11-07T00:59:52.545Z,0
2017-11-07T01:00:33.062Z,0
2017-11-07T01:01:13.613Z,0
2017-11-07T01:01:54.169Z,0
2017-11-07T01:02:34.719Z,0
2017-11-07T01:03:15.315Z,0
2017-11-07T01:03:55.799Z,0
2017-11-07T01:04:36.347Z,0
2017-11-07T01:05:16.885Z,0
2017-11-07T01:05:57.423Z,0
2017-11-07T01:06:37.986Z,0
2017-11-07T01:07:18.529Z,0
2017-11-07T01:07:59.089Z,0
2017-11-07T01:08:39.599Z,0
2017-11-07T01:09:20.131Z,0
2017-11-07T01:10:00.684Z,0
2017-11-07T01:10:41.353Z,0
2017-11-07T01:11:21.903Z,0
2017-11-07T01:12:02.454Z,0
2017-11-07T01:12:42.999Z,0
2017-11-07T01:13:23.595Z,0
2017-11-07T01:14:04.093Z,0
2017-11-07T01:14:44.709Z,0
2017-11-07T01:15:25.218Z,0
2017-11-07T01:16:05.737Z,0
2017-11-07T01:16:46.295Z,0
2017-11-07T01:17:26.852Z,0
2017-11-07T01:18:07.389Z,0
2017-11-07T01:18:47.943Z,0
2017-11-07T01:19:28.529Z,0
2017-11-07T01:20:09.088Z,0
2017-11-07T01:20:49.672Z,0
2017-11-07T01:21:30.171Z,0
2017-11-07T01:22:10.712Z,0
2017-11-07T01:22:51.260Z,0
2017-11-07T01:23:31.832Z,0
2017-11-07T01:24:12.352Z,0
2017-11-07T01:24:52.907Z,0
2017-11-07T01:25:33.441Z,0
2017-11-07T01:26:13.999Z,0
2017-11-07T01:26:54.539Z,0
2017-11-07T01:27:35.073Z,0
2017-11-07T01:28:15.620Z,0
2017-11-07T01:28:56.168Z,0
2017-11-07T01:29:36.725Z,0
2017-11-07T01:30:17.270Z,0
2017-11-07T01:30:57.788Z,0
2017-11-07T01:31:38.343Z,0
2017-11-07T01:32:18.906Z,0
2017-11-07T01:32:59.477Z,0
2017-11-07T01:33:40.057Z,0
2017-11-07T01:34:20.598Z,0
2017-11-07T01:35:01.177Z,0
2017-11-07T01:35:41.703Z,0
2017-11-07T01:36:22.297Z,0
2017-11-07T01:37:02.847Z,0
2017-11-07T01:37:43.420Z,0
2017-11-07T01:38:23.974Z,0
2017-11-07T01:39:04.539Z,0
2017-11-07T01:39:45.081Z,0
2017-11-07T01:40:25.634Z,0
2017-11-07T01:41:06.188Z,0
2017-11-07T01:41:46.719Z,0
2017-11-07T01:42:27.364Z,0
2017-11-07T01:43:07.924Z,0
2017-11-07T01:43:48.568Z,0
2017-11-07T01:44:29.154Z,0
2017-11-07T01:45:09.708Z,0
2017-11-07T01:45:50.249Z,0
2017-11-07T01:46:30.811Z,0
2017-11-07T01:47:11.366Z,0
2017-11-07T01:47:51.910Z,0
2017-11-07T01:48:32.474Z,0
2017-11-07T01:49:13.027Z,0
2017-11-07T01:49:53.568Z,0
2017-11-07T01:50:34.215Z,0
2017-11-07T01:51:15.719Z,0
2017-11-07T01:51:55.332Z,0
2017-11-07T01:52:35.912Z,0
2017-11-07T01:53:16.450Z,0
2017-11-07T01:53:57.011Z,0
2017-11-07T01:54:37.549Z,0
2017-11-07T01:55:18.099Z,0
2017-11-07T01:55:58.632Z,0
2017-11-07T01:56:39.184Z,0
2017-11-07T01:57:19.756Z,0
2017-11-07T01:58:00.347Z,0
2017-11-07T01:58:40.849Z,0
2017-11-07T01:59:21.404Z,0
2017-11-07T02:00:01.955Z,0
2017-11-07T02:00:42.504Z,0
2017-11-07T02:01:23.059Z,0
2017-11-07T02:02:03.652Z,0
2017-11-07T02:02:44.168Z,0
2017-11-07T02:03:24.712Z,0
2017-11-07T02:04:05.273Z,0
2017-11-07T02:04:45.813Z,0
2017-11-07T02:05:26.371Z,0
2017-11-07T02:06:06.942Z,0
2017-11-07T02:06:47.487Z,0
2017-11-07T02:07:28.222Z,0
2017-11-07T02:08:09.061Z,0
2017-11-07T02:08:49.624Z,0
2017-11-07T02:09:30.177Z,0
2017-11-07T02:10:10.734Z,0
2017-11-07T02:10:51.269Z,0
2017-11-07T02:11:31.815Z,0
2017-11-07T02:12:12.388Z,0
2017-11-07T02:12:52.948Z,0
2017-11-07T02:13:33.501Z,0
2017-11-07T02:14:14.039Z,0
2017-11-07T02:14:54.602Z,0
2017-11-07T02:15:35.135Z,0
2017-11-07T02:16:15.724Z,0
2017-11-07T02:16:56.209Z,0
2017-11-07T02:17:36.771Z,0
2017-11-07T02:18:17.316Z,0
2017-11-07T02:18:57.864Z,0
2017-11-07T02:19:38.430Z,0
2017-11-07T02:20:18.995Z,0
2017-11-07T02:20:59.554Z,0
2017-11-07T02:21:40.104Z,0
2017-11-07T02:22:20.646Z,0
2017-11-07T02:23:01.203Z,0
2017-11-07T02:23:41.783Z,0
2017-11-07T02:24:22.313Z,0
2017-11-07T02:25:02.867Z,0
2017-11-07T02:25:43.388Z,0
2017-11-07T02:26:23.946Z,0
2017-11-07T02:27:04.498Z,0
2017-11-07T02:27:45.194Z,0
2017-11-07T02:28:25.755Z,0
2017-11-07T02:29:06.295Z,0
2017-11-07T02:29:46.814Z,0
2017-11-07T02:30:27.362Z,0
2017-11-07T02:31:07.916Z,0
2017-11-07T02:31:48.470Z,0
2017-11-07T02:32:29.015Z,0
2017-11-07T02:33:09.564Z,0
2017-11-07T02:33:50.124Z,0
2017-11-07T02:34:30.651Z,0
2017-11-07T02:35:11.204Z,0
2017-11-07T02:35:51.784Z,0
2017-11-07T02:36:32.329Z,0
2017-11-07T02:37:12.899Z,0
2017-11-07T02:37:53.439Z,0
2017-11-07T02:38:33.983Z,0
2017-11-07T02:39:14.509Z,0
2017-11-07T02:39:55.128Z,0
2017-11-07T02:40:35.658Z,0
2017-11-07T02:41:16.207Z,0
2017-11-07T02:41:56.761Z,0
2017-11-07T02:42:37.336Z,0
2017-11-07T02:43:17.864Z,0
2017-11-07T02:43:58.384Z,0
2017-11-07T02:44:38.917Z,0
2017-11-07T02:45:19.475Z,0
2017-11-07T02:46:00.029Z,0
2017-11-07T02:46:40.568Z,0
2017-11-07T02:47:21.127Z,0
2017-11-07T02:48:01.697Z,0
2017-11-07T02:48:42.256Z,0
2017-11-07T02:49:22.823Z,0
2017-11-07T02:50:03.389Z,0
2017-11-07T02:50:43.918Z,0
2017-11-07T02:51:24.469Z,0
2017-11-07T02:52:05.037Z,0
2017-11-07T02:52:45.773Z,0
2017-11-07T02:53:26.356Z,0
2017-11-07T02:54:06.913Z,0
2017-11-07T02:54:47.530Z,0
2017-11-07T02:55:28.104Z,0
2017-11-07T02:56:08.648Z,0
2017-11-07T02:56:49.214Z,0
2017-11-07T02:57:29.787Z,0
2017-11-07T02:58:10.314Z,0
2017-11-07T02:58:50.895Z,0
2017-11-07T02:59:31.444Z,0
2017-11-07T03:00:12.019Z,0
2017-11-07T03:00:52.744Z,0
2017-11-07T03:01:33.297Z,0
2017-11-07T03:02:13.856Z,0
2017-11-07T03:02:54.411Z,0
2017-11-07T03:03:34.972Z,0
2017-11-07T03:04:15.528Z,0
2017-11-07T03:04:56.069Z,0
2017-11-07T03:05:36.612Z,0
2017-11-07T03:06:17.172Z,0
2017-11-07T03:06:57.721Z,0
2017-11-07T03:07:38.268Z,0
2017-11-07T03:08:18.817Z,0
2017-11-07T03:08:59.366Z,0
2017-11-07T03:09:39.920Z,0
2017-11-07T03:10:20.495Z,0
2017-11-07T03:11:01.055Z,0
2017-11-07T03:11:41.634Z,0
2017-11-07T03:12:22.223Z,0
2017-11-07T03:13:02.773Z,0
2017-11-07T03:13:43.344Z,0
2017-11-07T03:14:23.889Z,0
2017-11-07T03:15:04.445Z,0
2017-11-07T03:15:44.988Z,0
2017-11-07T03:16:25.589Z,0
2017-11-07T03:17:06.109Z,0
2017-11-07T03:17:46.653Z,0
2017-11-07T03:18:27.223Z,0
2017-11-07T03:19:07.748Z,0
2017-11-07T03:19:48.319Z,0
2017-11-07T03:20:28.884Z,0
2017-11-07T03:21:09.466Z,0
2017-11-07T03:21:50.015Z,0
2017-11-07T03:22:30.565Z,0
2017-11-07T03:23:11.114Z,0
2017-11-07T03:23:51.665Z,0
2017-11-07T03:24:32.208Z,0
2017-11-07T03:25:12.767Z,0
2017-11-07T03:25:53.309Z,0
2017-11-07T03:26:33.877Z,0
2017-11-07T03:27:14.425Z,0
2017-11-07T03:27:54.975Z,0
2017-11-07T03:28:35.542Z,0
2017-11-07T03:29:16.098Z,0
2017-11-07T03:29:56.666Z,0
2017-11-07T03:30:37.206Z,0
2017-11-07T03:31:17.772Z,0
2017-11-07T03:31:58.323Z,0
2017-11-07T03:32:38.877Z,0
2017-11-07T03:33:19.426Z,0
2017-11-07T03:33:59.969Z,0
2017-11-07T03:34:40.531Z,0
2017-11-07T03:35:21.053Z,0
2017-11-07T03:36:01.619Z,0
2017-11-07T03:36:42.179Z,0
2017-11-07T03:37:22.724Z,0
2017-11-07T03:38:03.260Z,0
2017-11-07T03:38:43.811Z,0
2017-11-07T03:39:24.358Z,0
2017-11-07T03:40:04.912Z,0
2017-11-07T03:40:45.461Z,0
2017-11-07T03:41:26.030Z,0
2017-11-07T03:42:06.570Z,0
2017-11-07T03:42:47.146Z,0
2017-11-07T03:43:27.691Z,0
2017-11-07T03:44:08.258Z,0
2017-11-07T03:44:48.812Z,0
2017-11-07T03:45:29.385Z,0
2017-11-07T03:46:09.917Z,0
2017-11-07T03:46:50.488Z,0
2017-11-07T03:47:31.043Z,0
2017-11-07T03:48:11.592Z,0
2017-11-07T03:48:52.138Z,0
2017-11-07T03:49:32.721Z,0
2017-11-07T03:50:13.260Z,0
2017-11-07T03:50:53.828Z,0
2017-11-07T03:51:34.398Z,0
2017-11-07T03:52:14.950Z,0
2017-11-07T03:52:55.522Z,0
2017-11-07T03:53:36.068Z,0
2017-11-07T03:54:16.631Z,0
2017-11-07T03:54:57.152Z,0
2017-11-07T03:55:37.738Z,0
2017-11-07T03:56:18.288Z,0
2017-11-07T03:56:58.813Z,0
2017-11-07T03:57:39.365Z,0
2017-11-07T03:58:19.912Z,0
2017-11-07T03:59:00.464Z,0
2017-11-07T03:59:41.002Z,0
2017-11-07T04:00:21.564Z,0
2017-11-07T04:01:02.110Z,0
2017-11-07T04:01:42.661Z,0
2017-11-07T04:02:23.212Z,0
2017-11-07T04:03:03.753Z,0
2017-11-07T04:03:44.307Z,0
2017-11-07T04:04:24.870Z,0
2017-11-07T04:05:05.430Z,0
2017-11-07T04:05:45.995Z,0
2017-11-07T04:06:26.549Z,0
2017-11-07T04:07:07.079Z,0
2017-11-07T04:07:47.632Z,0
2017-11-07T04:08:28.175Z,0
2017-11-07T04:09:08.726Z,0
2017-11-07T04:09:49.264Z,0
2017-11-07T04:10:29.826Z,0
2017-11-07T04:11:10.377Z,0
2017-11-07T04:11:50.920Z,0
2017-11-07T04:12:31.451Z,0
2017-11-07T04:13:12.014Z,0
2017-11-07T04:13:52.554Z,0
2017-11-07T04:14:33.122Z,0
2017-11-07T04:15:13.667Z,0
2017-11-07T04:15:54.215Z,0
2017-11-07T04:16:34.805Z,0
2017-11-07T04:17:15.348Z,0
2017-11-07T04:17:55.887Z,0
2017-11-07T04:18:36.429Z,0
2017-11-07T04:19:16.948Z,0
2017-11-07T04:19:57.507Z,0
2017-11-07T04:20:38.077Z,0
2017-11-07T04:21:18.628Z,0
2017-11-07T04:21:59.196Z,0
2017-11-07T04:22:39.786Z,0
2017-11-07T04:23:20.352Z,0
2017-11-07T04:24:00.881Z,0
2017-11-07T04:24:41.427Z,0
2017-11-07T04:25:21.985Z,0
2017-11-07T04:26:02.514Z,0
2017-11-07T04:26:43.098Z,0
2017-11-07T04:27:23.644Z,0
2017-11-07T04:28:04.199Z,0
2017-11-07T04:28:44.730Z,0
2017-11-07T04:29:25.304Z,0
2017-11-07T04:30:05.860Z,0
2017-11-07T04:30:46.390Z,0
2017-11-07T04:31:26.956Z,0
2017-11-07T04:32:07.518Z,0
2017-11-07T04:32:48.062Z,0
2017-11-07T04:33:28.620Z,0
2017-11-07T04:34:09.178Z,0
2017-11-07T04:34:49.736Z,0
2017-11-07T04:35:30.310Z,0
2017-11-07T04:36:10.857Z,0
2017-11-07T04:36:51.421Z,0
2017-11-07T04:37:31.975Z,0
2017-11-07T04:38:12.530Z,0
2017-11-07T04:38:53.090Z,0
2017-11-07T04:39:33.645Z,0
2017-11-07T04:40:14.197Z,0
2017-11-07T04:40:54.756Z,0
2017-11-07T04:41:35.309Z,0
2017-11-07T04:42:15.877Z,0
2017-11-07T04:42:56.431Z,0
2017-11-07T04:43:36.987Z,0
2017-11-07T04:44:17.544Z,0
2017-11-07T04:44:58.109Z,0
2017-11-07T04:45:38.664Z,0
2017-11-07T04:46:19.225Z,0
2017-11-07T04:46:59.783Z,0
2017-11-07T04:47:40.337Z,0
2017-11-07T04:48:20.885Z,0
2017-11-07T04:49:01.435Z,0
2017-11-07T04:49:41.995Z,0
2017-11-07T04:50:22.574Z,0
2017-11-07T04:51:03.119Z,0
2017-11-07T04:51:43.668Z,0
2017-11-07T04:52:24.213Z,0
2017-11-07T04:53:04.752Z,0
2017-11-07T04:53:45.312Z,0
2017-11-07T04:54:25.870Z,0
2017-11-07T04:55:06.410Z,0
2017-11-07T04:55:46.967Z,0
2017-11-07T04:56:27.524Z,0
2017-11-07T04:57:08.065Z,0
2017-11-07T04:57:48.646Z,0
2017-11-07T04:58:29.192Z,0
2017-11-07T04:59:09.756Z,0
2017-11-07T04:59:50.317Z,0
2017-11-07T05:00:30.879Z,0
2017-11-07T05:01:11.474Z,0
2017-11-07T05:01:52.108Z,0
2017-11-07T05:02:32.662Z,0
2017-11-07T05:03:13.282Z,0
2017-11-07T05:03:53.844Z,0
2017-11-07T05:04:34.393Z,0
2017-11-07T05:05:14.962Z,0
2017-11-07T05:05:55.535Z,0
2017-11-07T05:06:36.092Z,0
2017-11-07T05:07:16.630Z,0
2017-11-07T05:07:57.209Z,0
2017-11-07T05:08:37.844Z,0
2017-11-07T05:09:18.387Z,0
2017-11-07T05:09:58.937Z,0
2017-11-07T05:10:39.486Z,0
2017-11-07T05:11:20.050Z,0
2017-11-07T05:12:00.607Z,0
2017-11-07T05:12:41.149Z,0
2017-11-07T05:13:21.733Z,0
2017-11-07T05:14:02.306Z,0
2017-11-07T05:14:42.883Z,0
2017-11-07T05:15:23.429Z,0
2017-11-07T05:16:03.987Z,0
2017-11-07T05:16:44.536Z,0
2017-11-07T05:17:25.083Z,0
2017-11-07T05:18:05.635Z,0
2017-11-07T05:18:46.201Z,0
2017-11-07T05:19:26.746Z,0
2017-11-07T05:20:07.282Z,0
2017-11-07T05:20:47.853Z,0
2017-11-07T05:21:28.425Z,0
2017-11-07T05:22:08.976Z,0
2017-11-07T05:22:49.528Z,0
2017-11-07T05:23:30.083Z,0
2017-11-07T05:24:10.648Z,0
2017-11-07T05:24:51.175Z,0
2017-11-07T05:25:31.779Z,0
2017-11-07T05:26:12.300Z,0
2017-11-07T05:26:52.861Z,0
2017-11-07T05:27:33.405Z,0
2017-11-07T05:28:13.963Z,0
2017-11-07T05:28:54.518Z,0
2017-11-07T05:29:35.076Z,0
2017-11-07T05:30:15.601Z,0
2017-11-07T05:30:56.170Z,0
2017-11-07T05:31:36.700Z,0
2017-11-07T05:32:17.242Z,0
2017-11-07T05:32:57.793Z,0
2017-11-07T05:33:38.354Z,0
2017-11-07T05:34:18.907Z,0
2017-11-07T05:34:59.493Z,0
2017-11-07T05:35:40.086Z,0
2017-11-07T05:36:20.625Z,0
2017-11-07T05:37:01.191Z,0
2017-11-07T05:37:41.754Z,0
2017-11-07T05:38:22.308Z,0
2017-11-07T05:39:02.854Z,0
2017-11-07T05:39:43.426Z,0
2017-11-07T05:40:23.964Z,0
2017-11-07T05:41:04.511Z,0
2017-11-07T05:41:45.060Z,0
2017-11-07T05:42:25.623Z,0
2017-11-07T05:43:06.153Z,0
2017-11-07T05:43:46.730Z,0
2017-11-07T05:44:27.298Z,0
2017-11-07T05:45:07.872Z,0
2017-11-07T05:45:48.407Z,0
2017-11-07T05:46:28.925Z,0
2017-11-07T05:47:09.480Z,0
2017-11-07T05:47:50.025Z,0
2017-11-07T05:48:30.651Z,0
2017-11-07T05:49:11.229Z,0
2017-11-07T05:49:51.799Z,0
2017-11-07T05:50:32.344Z,0
2017-11-07T05:51:12.853Z,0
2017-11-07T05:51:53.392Z,0
2017-11-07T05:52:33.961Z,0
2017-11-07T05:53:14.514Z,0
2017-11-07T05:53:55.022Z,0
2017-11-07T05:54:35.568Z,0
2017-11-07T05:55:16.101Z,0
2017-11-07T05:55:56.633Z,0
2017-11-07T05:56:37.187Z,0
2017-11-07T05:57:17.744Z,0
2017-11-07T05:57:58.282Z,0
2017-11-07T05:58:38.856Z,0
2017-11-07T05:59:19.413Z,0
2017-11-07T05:59:59.960Z,0
2017-11-07T06:00:40.531Z,0
2017-11-07T06:01:21.089Z,0
2017-11-07T06:02:01.638Z,0
2017-11-07T06:02:42.188Z,0
2017-11-07T06:03:22.739Z,4
2017-11-07T06:04:03.308Z,4
2017-11-07T06:04:43.870Z,0
2017-11-07T06:05:24.483Z,4
2017-11-07T06:06:05.055Z,4
2017-11-07T06:06:45.601Z,4
2017-11-07T06:07:26.151Z,4
2017-11-07T06:08:06.697Z,4
2017-11-07T06:08:47.245Z,4
2017-11-07T06:09:27.797Z,8
2017-11-07T06:10:08.359Z,8
2017-11-07T06:10:48.892Z,4
2017-11-07T06:11:29.465Z,8
2017-11-07T06:12:10.017Z,8
2017-11-07T06:12:50.582Z,8
2017-11-07T06:13:31.119Z,8
2017-11-07T06:14:11.686Z,12
2017-11-07T06:14:52.238Z,12
2017-11-07T06:15:32.784Z,12
2017-11-07T06:16:13.328Z,12
2017-11-07T06:16:53.902Z,16
2017-11-07T06:17:34.441Z,12
2017-11-07T06:18:14.995Z,16
2017-11-07T06:18:55.542Z,16
2017-11-07T06:19:36.069Z,16
2017-11-07T06:20:16.709Z,20
2017-11-07T06:20:57.268Z,20
2017-11-07T06:21:37.851Z,20
2017-11-07T06:22:18.401Z,24
2017-11-07T06:22:58.948Z,24
2017-11-07T06:23:39.575Z,24
2017-11-07T06:24:20.107Z,28
2017-11-07T06:25:00.666Z,28
2017-11-07T06:25:41.194Z,28
2017-11-07T06:26:21.756Z,28
2017-11-07T06:27:02.254Z,28
2017-11-07T06:27:42.845Z,28
2017-11-07T06:28:23.408Z,28
2017-11-07T06:29:04.040Z,28
2017-11-07T06:29:44.570Z,32
2017-11-07T06:30:25.165Z,28
2017-11-07T06:31:05.666Z,32
2017-11-07T06:31:46.258Z,32
2017-11-07T06:32:26.754Z,36
2017-11-07T06:33:07.430Z,32
2017-11-07T06:33:48.017Z,36
2017-11-07T06:34:28.568Z,40
2017-11-07T06:35:09.087Z,44
2017-11-07T06:35:49.690Z,48
2017-11-07T06:36:30.164Z,52
2017-11-07T06:37:10.711Z,52
2017-11-07T06:37:51.309Z,52
2017-11-07T06:38:31.815Z,56
2017-11-07T06:39:12.332Z,56
2017-11-07T06:39:52.922Z,60
2017-11-07T06:40:33.435Z,60
2017-11-07T06:41:13.974Z,64
2017-11-07T06:41:54.514Z,68
2017-11-07T06:42:35.023Z,76
2017-11-07T06:43:15.564Z,72
2017-11-07T06:43:56.110Z,72
2017-11-07T06:44:36.670Z,76
2017-11-07T06:45:17.192Z,76
2017-11-07T06:45:57.724Z,76
2017-11-07T06:46:38.266Z,76
2017-11-07T06:47:18.774Z,80
2017-11-07T06:47:59.298Z,84
2017-11-07T06:48:39.857Z,84
2017-11-07T06:49:20.439Z,84
2017-11-07T06:50:01.010Z,84
2017-11-07T06:50:41.543Z,92
2017-11-07T06:51:22.129Z,96
2017-11-07T06:52:02.691Z,100
2017-11-07T06:52:43.238Z,108
2017-11-07T06:53:23.804Z,116
2017-11-07T06:54:04.360Z,120
2017-11-07T06:54:44.927Z,124
2017-11-07T06:55:25.540Z,124
2017-11-07T06:56:06.113Z,128
2017-11-07T06:56:46.716Z,136
2017-11-07T06:57:27.279Z,136
2017-11-07T06:58:07.803Z,144
2017-11-07T06:58:48.371Z,144
2017-11-07T06:59:28.917Z,148
2017-11-07T07:00:09.471Z,148
2017-11-07T07:00:50.022Z,144
2017-11-07T07:01:30.582Z,144
2017-11-07T07:02:11.119Z,144
2017-11-07T07:02:51.649Z,140
2017-11-07T07:03:32.211Z,140
2017-11-07T07:04:12.768Z,136
2017-11-07T07:04:53.349Z,136
2017-11-07T07:05:33.929Z,140
2017-11-07T07:06:14.448Z,156
2017-11-07T07:06:54.955Z,168
2017-11-07T07:07:35.677Z,176
2017-11-07T07:08:16.207Z,176
2017-11-07T07:08:56.741Z,180
2017-11-07T07:09:37.253Z,188
2017-11-07T07:10:17.781Z,200
2017-11-07T07:10:58.358Z,204
2017-11-07T07:11:38.880Z,212
2017-11-07T07:12:19.418Z,216
2017-11-07T07:13:00.085Z,212
2017-11-07T07:13:40.521Z,212
2017-11-07T07:14:21.043Z,208
2017-11-07T07:15:01.607Z,200
2017-11-07T07:15:42.194Z,200
2017-11-07T07:16:22.713Z,200
2017-11-07T07:17:03.259Z,200
2017-11-07T07:17:43.766Z,200
2017-11-07T07:18:24.319Z,216
2017-11-07T07:19:04.873Z,228
2017-11-07T07:19:45.415Z,260
2017-11-07T07:20:25.954Z,264
2017-11-07T07:21:06.517Z,248
2017-11-07T07:21:47.063Z,248
2017-11-07T07:22:27.611Z,256
2017-11-07T07:23:08.161Z,268
2017-11-07T07:23:48.735Z,272
2017-11-07T07:24:29.280Z,272
2017-11-07T07:25:09.830Z,276
2017-11-07T07:25:50.388Z,276
2017-11-07T07:26:30.934Z,276
2017-11-07T07:27:11.487Z,272
2017-11-07T07:27:52.032Z,272
2017-11-07T07:28:32.614Z,268
2017-11-07T07:29:13.191Z,272
2017-11-07T07:29:53.725Z,284
2017-11-07T07:30:34.297Z,292
2017-11-07T07:31:14.866Z,272
2017-11-07T07:31:55.458Z,280
2017-11-07T07:32:35.971Z,292
2017-11-07T07:33:16.566Z,308
2017-11-07T07:33:57.105Z,316
2017-11-07T07:34:37.646Z,312
2017-11-07T07:35:18.192Z,316
2017-11-07T07:35:58.751Z,324
2017-11-07T07:36:39.299Z,336
2017-11-07T07:37:19.854Z,360
2017-11-07T07:38:00.398Z,388
2017-11-07T07:38:40.947Z,416
2017-11-07T07:39:21.484Z,428
2017-11-07T07:40:02.071Z,436
2017-11-07T07:40:42.659Z,460
2017-11-07T07:41:23.186Z,480
2017-11-07T07:42:03.722Z,496
2017-11-07T07:42:44.288Z,500
2017-11-07T07:43:24.810Z,516
2017-11-07T07:44:05.376Z,544
2017-11-07T07:44:45.961Z,572
2017-11-07T07:45:26.550Z,604
2017-11-07T07:46:07.211Z,624
2017-11-07T07:46:47.761Z,640
2017-11-07T07:47:28.299Z,640
2017-11-07T07:48:08.879Z,620
2017-11-07T07:48:49.449Z,596
2017-11-07T07:49:30.003Z,580
2017-11-07T07:50:10.580Z,572
2017-11-07T07:50:51.129Z,572
2017-11-07T07:51:31.661Z,588
2017-11-07T07:52:12.340Z,608
2017-11-07T07:52:52.937Z,632
2017-11-07T07:53:33.405Z,652
2017-11-07T07:54:13.947Z,644
2017-11-07T07:54:54.512Z,624
2017-11-07T07:55:35.106Z,600
2017-11-07T07:56:15.663Z,584
2017-11-07T07:56:56.253Z,580
2017-11-07T07:57:36.725Z,580
2017-11-07T07:58:17.266Z,584
2017-11-07T07:58:57.831Z,600
2017-11-07T07:59:38.381Z,612
2017-11-07T08:00:18.944Z,628
2017-11-07T08:00:59.450Z,656
2017-11-07T08:01:39.988Z,672
2017-11-07T08:02:20.522Z,680
2017-11-07T08:03:01.096Z,672
2017-11-07T08:03:41.617Z,648
2017-11-07T08:04:22.276Z,620
2017-11-07T08:05:02.796Z,592
2017-11-07T08:05:43.350Z,576
2017-11-07T08:06:23.919Z,576
2017-11-07T08:07:04.416Z,584
2017-11-07T08:07:44.963Z,588
2017-11-07T08:08:25.540Z,580
2017-11-07T08:09:06.149Z,556
2017-11-07T08:09:46.676Z,532
2017-11-07T08:10:27.166Z,516
2017-11-07T08:11:07.712Z,504
2017-11-07T08:11:48.244Z,520
2017-11-07T08:12:28.807Z,524
2017-11-07T08:13:09.318Z,540
2017-11-07T08:13:49.900Z,548
2017-11-07T08:14:30.501Z,556
2017-11-07T08:15:11.029Z,556
2017-11-07T08:15:51.602Z,576
2017-11-07T08:16:32.149Z,588
2017-11-07T08:17:12.683Z,592
2017-11-07T08:17:53.207Z,588
2017-11-07T08:18:33.762Z,584
2017-11-07T08:19:14.350Z,588
2017-11-07T08:19:54.858Z,596
2017-11-07T08:20:35.412Z,604
2017-11-07T08:21:15.922Z,604
2017-11-07T08:21:56.473Z,612
2017-11-07T08:22:37.026Z,608
2017-11-07T08:23:17.524Z,632
2017-11-07T08:23:58.057Z,632
2017-11-07T08:24:38.627Z,660
2017-11-07T08:25:19.082Z,724
2017-11-07T08:25:59.612Z,804
2017-11-07T08:26:40.158Z,836
2017-11-07T08:27:20.739Z,828
2017-11-07T08:28:01.270Z,800
2017-11-07T08:28:41.835Z,800
2017-11-07T08:29:22.370Z,812
2017-11-07T08:30:02.894Z,828
2017-11-07T08:30:43.463Z,844
2017-11-07T08:31:23.998Z,840
2017-11-07T08:32:04.565Z,848
2017-11-07T08:32:45.127Z,852
2017-11-07T08:33:25.708Z,844
2017-11-07T08:34:06.251Z,820
2017-11-07T08:34:46.790Z,796
2017-11-07T08:35:27.331Z,784
2017-11-07T08:36:07.886Z,784
2017-11-07T08:36:48.439Z,764
2017-11-07T08:37:28.982Z,748
2017-11-07T08:38:09.526Z,764
2017-11-07T08:38:50.071Z,808
2017-11-07T08:39:30.627Z,864
2017-11-07T08:40:11.190Z,912
2017-11-07T08:40:51.789Z,940
2017-11-07T08:41:33.081Z,972
2017-11-07T08:42:13.689Z,1012
2017-11-07T08:42:54.272Z,1048
2017-11-07T08:43:34.755Z,1096
2017-11-07T08:44:15.315Z,1152
2017-11-07T08:44:55.928Z,1188
2017-11-07T08:45:36.470Z,1192
2017-11-07T08:46:17.052Z,1196
2017-11-07T08:46:57.622Z,1180
2017-11-07T08:47:38.165Z,1152
2017-11-07T08:48:18.739Z,1120
2017-11-07T08:48:59.316Z,1092
2017-11-07T08:49:39.867Z,1052
2017-11-07T08:50:20.420Z,1012
2017-11-07T08:51:00.985Z,984
2017-11-07T08:51:41.544Z,976
2017-11-07T08:52:22.094Z,964
2017-11-07T08:53:02.638Z,924
2017-11-07T08:53:43.156Z,872
2017-11-07T08:54:23.706Z,840
2017-11-07T08:55:04.265Z,832
2017-11-07T08:55:44.840Z,840
2017-11-07T08:56:25.433Z,840
2017-11-07T08:57:05.970Z,812
2017-11-07T08:57:46.552Z,800
2017-11-07T08:58:27.137Z,832
2017-11-07T08:59:07.660Z,872
2017-11-07T08:59:48.301Z,856
2017-11-07T09:00:28.853Z,820
2017-11-07T09:01:09.412Z,808
2017-11-07T09:01:49.966Z,816
2017-11-07T09:02:30.517Z,820
2017-11-07T09:03:11.081Z,816
2017-11-07T09:03:51.629Z,812
2017-11-07T09:04:32.177Z,804
2017-11-07T09:05:12.737Z,800
2017-11-07T09:05:53.290Z,796
2017-11-07T09:06:33.823Z,800
2017-11-07T09:07:14.373Z,800
2017-11-07T09:07:54.908Z,796
2017-11-07T09:08:35.462Z,784
2017-11-07T09:09:16.011Z,772
2017-11-07T09:09:56.560Z,744
2017-11-07T09:10:37.104Z,736
2017-11-07T09:11:17.671Z,732
2017-11-07T09:11:58.229Z,724
2017-11-07T09:12:38.768Z,704
2017-11-07T09:13:19.306Z,692
2017-11-07T09:13:59.870Z,680
2017-11-07T09:14:40.435Z,704
2017-11-07T09:15:21.159Z,728
2017-11-07T09:16:01.555Z,760
2017-11-07T09:16:42.119Z,796
2017-11-07T09:17:22.653Z,856
2017-11-07T09:18:03.256Z,916
2017-11-07T09:18:43.816Z,924
2017-11-07T09:19:24.372Z,928
2017-11-07T09:20:04.924Z,940
2017-11-07T09:20:45.454Z,952
2017-11-07T09:21:25.993Z,956
2017-11-07T09:22:06.564Z,980
2017-11-07T09:22:47.110Z,996
2017-11-07T09:23:27.669Z,1024
2017-11-07T09:24:08.350Z,1032
2017-11-07T09:24:48.871Z,1060
2017-11-07T09:25:29.538Z,1104
2017-11-07T09:26:10.090Z,1108
2017-11-07T09:26:50.619Z,1104
2017-11-07T09:27:31.142Z,1084
2017-11-07T09:28:11.704Z,1064
2017-11-07T09:28:52.253Z,1072
2017-11-07T09:29:32.861Z,1092
2017-11-07T09:30:13.341Z,1120
2017-11-07T09:30:53.915Z,1124
2017-11-07T09:31:34.446Z,1108
2017-11-07T09:32:14.975Z,1100
2017-11-07T09:32:55.519Z,1096
2017-11-07T09:33:36.173Z,1140
2017-11-07T09:34:16.654Z,1216
2017-11-07T09:34:57.191Z,1272
2017-11-07T09:35:37.827Z,1324
2017-11-07T09:36:18.416Z,1372
2017-11-07T09:36:58.895Z,1400
2017-11-07T09:37:39.380Z,1440
2017-11-07T09:38:19.920Z,1464
2017-11-07T09:39:00.443Z,1496
2017-11-07T09:39:41.049Z,1512
2017-11-07T09:40:21.557Z,1528
2017-11-07T09:41:02.090Z,1532
2017-11-07T09:41:42.624Z,1508
2017-11-07T09:42:23.181Z,1440
2017-11-07T09:43:03.757Z,1380
2017-11-07T09:43:44.430Z,1352
2017-11-07T09:44:24.940Z,1312